sensor_id;sensor_type;location;lat;lon;timestamp;pressure;altitude;pressure_sealevel;temperature;humidity
35226;BME280;21813;49.686;21.766;2023-04-08T00:01:37;98633.13;;;1.85;100.00
35226;BME280;21813;49.686;21.766;2023-04-08T00:04:03;98637.28;;;1.87;100.00
35226;BME280;21813;49.686;21.766;2023-04-08T00:06:29;98627.00;;;1.87;100.00
35226;BME280;21813;49.686;21.766;2023-04-08T00:08:55;98640.63;;;1.89;100.00
35226;BME280;21813;49.686;21.766;2023-04-08T00:11:21;98637.16;;;1.90;100.00
35226;BME280;21813;49.686;21.766;2023-04-08T00:13:47;98640.63;;;1.89;100.00
35226;BME280;21813;49.686;21.766;2023-04-08T00:16:13;98640.50;;;1.92;100.00
35226;BME280;21813;49.686;21.766;2023-04-08T00:18:38;98635.38;;;1.92;100.00
35226;BME280;21813;49.686;21.766;2023-04-08T00:21:04;98632.78;;;1.92;100.00
35226;BME280;21813;49.686;21.766;2023-04-08T00:23:30;98638.72;;;1.94;100.00
35226;BME280;21813;49.686;21.766;2023-04-08T00:25:56;98634.38;;;1.95;100.00
35226;BME280;21813;49.686;21.766;2023-04-08T00:28:21;98630.03;;;1.97;100.00
35226;BME280;21813;49.686;21.766;2023-04-08T00:30:47;98635.31;;;1.94;100.00
35226;BME280;21813;49.686;21.766;2023-04-08T00:33:13;98641.16;;;1.97;100.00
35226;BME280;21813;49.686;21.766;2023-04-08T00:35:39;98631.75;;;1.96;100.00
35226;BME280;21813;49.686;21.766;2023-04-08T00:38:04;98627.47;;;1.97;100.00
35226;BME280;21813;49.686;21.766;2023-04-08T00:40:33;98639.41;;;1.98;100.00
35226;BME280;21813;49.686;21.766;2023-04-08T00:42:59;98639.47;;;1.96;100.00
35226;BME280;21813;49.686;21.766;2023-04-08T00:45:25;98633.59;;;1.94;100.00
35226;BME280;21813;49.686;21.766;2023-04-08T00:47:50;98643.03;;;1.94;100.00
35226;BME280;21813;49.686;21.766;2023-04-08T00:50:17;98642.28;;;1.90;100.00
35226;BME280;21813;49.686;21.766;2023-04-08T00:52:43;98638.97;;;1.88;100.00
35226;BME280;21813;49.686;21.766;2023-04-08T00:55:09;98638.16;;;1.86;100.00
35226;BME280;21813;49.686;21.766;2023-04-08T00:57:35;98637.34;;;1.86;100.00
35226;BME280;21813;49.686;21.766;2023-04-08T01:00:03;98644.09;;;1.88;100.00
35226;BME280;21813;49.686;21.766;2023-04-08T01:05:59;98641.63;;;1.85;100.00
35226;BME280;21813;49.686;21.766;2023-04-08T01:08:31;98645.19;;;1.83;100.00
35226;BME280;21813;49.686;21.766;2023-04-08T01:11:02;98641.75;;;1.82;100.00
35226;BME280;21813;49.686;21.766;2023-04-08T01:13:33;98641.13;;;1.77;100.00
35226;BME280;21813;49.686;21.766;2023-04-08T01:16:04;98643.69;;;1.77;100.00
35226;BME280;21813;49.686;21.766;2023-04-08T01:18:32;98656.53;;;1.77;100.00
35226;BME280;21813;49.686;21.766;2023-04-08T01:21:01;98650.63;;;1.75;100.00
35226;BME280;21813;49.686;21.766;2023-04-08T01:23:36;98647.22;;;1.74;100.00
35226;BME280;21813;49.686;21.766;2023-04-08T01:26:04;98645.59;;;1.72;100.00
35226;BME280;21813;49.686;21.766;2023-04-08T01:28:30;98648.13;;;1.73;100.00
35226;BME280;21813;49.686;21.766;2023-04-08T01:31:04;98646.53;;;1.71;100.00
35226;BME280;21813;49.686;21.766;2023-04-08T01:33:30;98660.97;;;1.73;100.00
35226;BME280;21813;49.686;21.766;2023-04-08T01:35:58;98659.38;;;1.71;100.00
35226;BME280;21813;49.686;21.766;2023-04-08T01:38:25;98662.03;;;1.68;100.00
35226;BME280;21813;49.686;21.766;2023-04-08T01:40:54;98656.91;;;1.68;100.00
35226;BME280;21813;49.686;21.766;2023-04-08T01:43:20;98659.53;;;1.66;100.00
35226;BME280;21813;49.686;21.766;2023-04-08T01:45:48;98660.25;;;1.70;100.00
35226;BME280;21813;49.686;21.766;2023-04-08T01:48:14;98665.44;;;1.68;100.00
35226;BME280;21813;49.686;21.766;2023-04-08T01:50:43;98664.56;;;1.69;100.00
35226;BME280;21813;49.686;21.766;2023-04-08T01:53:10;98668.13;;;1.65;100.00
35226;BME280;21813;49.686;21.766;2023-04-08T01:55:37;98669.91;;;1.63;100.00
35226;BME280;21813;49.686;21.766;2023-04-08T01:58:06;98670.75;;;1.64;100.00
35226;BME280;21813;49.686;21.766;2023-04-08T02:03:30;98671.59;;;1.64;100.00
35226;BME280;21813;49.686;21.766;2023-04-08T02:05:58;98667.44;;;1.62;100.00
35226;BME280;21813;49.686;21.766;2023-04-08T02:08:24;98670.00;;;1.62;100.00
35226;BME280;21813;49.686;21.766;2023-04-08T02:10:50;98675.13;;;1.62;100.00
35226;BME280;21813;49.686;21.766;2023-04-08T02:13:16;98680.28;;;1.62;100.00
35226;BME280;21813;49.686;21.766;2023-04-08T02:15:48;98671.78;;;1.60;100.00
35226;BME280;21813;49.686;21.766;2023-04-08T02:18:24;98677.81;;;1.59;100.00
35226;BME280;21813;49.686;21.766;2023-04-08T02:21:11;98676.13;;;1.58;100.00
35226;BME280;21813;49.686;21.766;2023-04-08T02:23:40;98672.00;;;1.54;100.00
35226;BME280;21813;49.686;21.766;2023-04-08T02:26:12;98667.84;;;1.51;100.00
35226;BME280;21813;49.686;21.766;2023-04-08T02:28:40;98666.13;;;1.52;100.00
35226;BME280;21813;49.686;21.766;2023-04-08T02:31:10;98673.16;;;1.47;100.00
35226;BME280;21813;49.686;21.766;2023-04-08T02:33:39;98685.19;;;1.45;100.00
35226;BME280;21813;49.686;21.766;2023-04-08T02:36:05;98674.34;;;1.38;100.00
35226;BME280;21813;49.686;21.766;2023-04-08T02:38:33;98675.28;;;1.36;100.00
35226;BME280;21813;49.686;21.766;2023-04-08T02:40:59;98681.38;;;1.33;100.00
35226;BME280;21813;49.686;21.766;2023-04-08T02:43:25;98684.13;;;1.28;100.00
35226;BME280;21813;49.686;21.766;2023-04-08T02:45:56;98690.19;;;1.26;100.00
35226;BME280;21813;49.686;21.766;2023-04-08T02:48:23;98687.78;;;1.21;100.00
35226;BME280;21813;49.686;21.766;2023-04-08T02:50:48;98685.41;;;1.17;100.00
35226;BME280;21813;49.686;21.766;2023-04-08T02:53:14;98684.56;;;1.16;100.00
35226;BME280;21813;49.686;21.766;2023-04-08T02:55:40;98678.72;;;1.13;100.00
35226;BME280;21813;49.686;21.766;2023-04-08T02:58:07;98691.50;;;1.14;100.00
35226;BME280;21813;49.686;21.766;2023-04-08T03:00:32;98685.75;;;1.08;100.00
35226;BME280;21813;49.686;21.766;2023-04-08T03:03:00;98695.16;;;1.07;100.00
35226;BME280;21813;49.686;21.766;2023-04-08T03:05:26;98700.41;;;1.04;100.00
35226;BME280;21813;49.686;21.766;2023-04-08T03:07:52;98703.28;;;0.97;100.00
35226;BME280;21813;49.686;21.766;2023-04-08T03:10:18;98705.00;;;0.96;100.00
35226;BME280;21813;49.686;21.766;2023-04-08T03:12:44;98701.81;;;0.89;100.00
35226;BME280;21813;49.686;21.766;2023-04-08T03:15:10;98695.00;;;0.88;100.00
35226;BME280;21813;49.686;21.766;2023-04-08T03:17:36;98712.13;;;0.88;100.00
35226;BME280;21813;49.686;21.766;2023-04-08T03:20:02;98699.53;;;0.82;100.00
35226;BME280;21813;49.686;21.766;2023-04-08T03:22:33;98709.78;;;0.82;100.00
35226;BME280;21813;49.686;21.766;2023-04-08T03:24:59;98720.03;;;0.82;100.00
35226;BME280;21813;49.686;21.766;2023-04-08T03:27:26;98713.44;;;0.75;100.00
35226;BME280;21813;49.686;21.766;2023-04-08T03:29:52;98705.84;;;0.72;100.00
35226;BME280;21813;49.686;21.766;2023-04-08T03:32:19;98711.88;;;0.71;100.00
35226;BME280;21813;49.686;21.766;2023-04-08T03:34:44;98706.91;;;0.66;100.00
35226;BME280;21813;49.686;21.766;2023-04-08T03:37:11;98713.75;;;0.66;100.00
35226;BME280;21813;49.686;21.766;2023-04-08T03:39:37;98715.56;;;0.64;100.00
35226;BME280;21813;49.686;21.766;2023-04-08T03:42:04;98702.06;;;0.59;100.00
35226;BME280;21813;49.686;21.766;2023-04-08T03:44:30;98710.63;;;0.58;100.00
35226;BME280;21813;49.686;21.766;2023-04-08T03:46:56;98715.75;;;0.58;100.00
35226;BME280;21813;49.686;21.766;2023-04-08T03:49:22;98723.50;;;0.56;100.00
35226;BME280;21813;49.686;21.766;2023-04-08T03:51:49;98720.19;;;0.53;100.00
35226;BME280;21813;49.686;21.766;2023-04-08T03:54:14;98715.97;;;0.52;100.00
35226;BME280;21813;49.686;21.766;2023-04-08T03:56:41;98710.94;;;0.49;100.00
35226;BME280;21813;49.686;21.766;2023-04-08T03:59:06;98717.84;;;0.47;100.00
35226;BME280;21813;49.686;21.766;2023-04-08T04:01:32;98720.50;;;0.43;100.00
35226;BME280;21813;49.686;21.766;2023-04-08T04:03:58;98715.44;;;0.42;100.00
35226;BME280;21813;49.686;21.766;2023-04-08T04:06:25;98718.78;;;0.44;100.00
35226;BME280;21813;49.686;21.766;2023-04-08T04:08:55;98712.94;;;0.40;100.00
35226;BME280;21813;49.686;21.766;2023-04-08T04:11:23;98723.19;;;0.40;100.00
35226;BME280;21813;49.686;21.766;2023-04-08T04:13:48;98717.34;;;0.37;100.00
35226;BME280;21813;49.686;21.766;2023-04-08T04:16:15;98724.22;;;0.35;100.00
35226;BME280;21813;49.686;21.766;2023-04-08T04:18:40;98732.72;;;0.37;100.00
35226;BME280;21813;49.686;21.766;2023-04-08T04:21:07;98720.06;;;0.32;100.00
35226;BME280;21813;49.686;21.766;2023-04-08T04:23:33;98738.75;;;0.34;100.00
35226;BME280;21813;49.686;21.766;2023-04-08T04:25:59;98742.22;;;0.33;100.00
35226;BME280;21813;49.686;21.766;2023-04-08T04:28:24;98738.75;;;0.34;100.00
35226;BME280;21813;49.686;21.766;2023-04-08T04:30:51;98737.00;;;0.36;100.00
35226;BME280;21813;49.686;21.766;2023-04-08T04:33:17;98750.59;;;0.38;100.00
35226;BME280;21813;49.686;21.766;2023-04-08T04:35:42;98753.97;;;0.40;100.00
35226;BME280;21813;49.686;21.766;2023-04-08T04:38:08;98756.44;;;0.42;100.00
35226;BME280;21813;49.686;21.766;2023-04-08T04:40:39;98746.16;;;0.43;100.00
35226;BME280;21813;49.686;21.766;2023-04-08T04:43:05;98740.16;;;0.44;100.00
35226;BME280;21813;49.686;21.766;2023-04-08T04:45:32;98754.56;;;0.47;100.00
35226;BME280;21813;49.686;21.766;2023-04-08T04:47:57;98751.09;;;0.50;100.00
35226;BME280;21813;49.686;21.766;2023-04-08T04:50:23;98753.53;;;0.53;100.00
35226;BME280;21813;49.686;21.766;2023-04-08T04:52:48;98762.03;;;0.55;100.00
35226;BME280;21813;49.686;21.766;2023-04-08T04:55:14;98766.22;;;0.57;100.00
35226;BME280;21813;49.686;21.766;2023-04-08T04:57:40;98764.44;;;0.59;100.00
35226;BME280;21813;49.686;21.766;2023-04-08T05:00:07;98766.09;;;0.60;100.00
35226;BME280;21813;49.686;21.766;2023-04-08T05:02:33;98759.19;;;0.62;100.00
35226;BME280;21813;49.686;21.766;2023-04-08T05:04:58;98760.03;;;0.63;100.00
35226;BME280;21813;49.686;21.766;2023-04-08T05:07:24;98762.44;;;0.67;100.00
35226;BME280;21813;49.686;21.766;2023-04-08T05:10:19;98766.63;;;0.70;100.00
35226;BME280;21813;49.686;21.766;2023-04-08T05:16:18;98779.28;;;0.74;100.00
35226;BME280;21813;49.686;21.766;2023-04-08T05:18:49;98793.75;;;0.77;100.00
35226;BME280;21813;49.686;21.766;2023-04-08T05:21:37;98798.78;;;0.80;100.00
35226;BME280;21813;49.686;21.766;2023-04-08T05:24:02;98796.91;;;0.85;100.00
35226;BME280;21813;49.686;21.766;2023-04-08T05:26:29;98793.34;;;0.89;100.00
35226;BME280;21813;49.686;21.766;2023-04-08T05:28:56;98806.75;;;0.97;100.00
35226;BME280;21813;49.686;21.766;2023-04-08T05:31:22;98803.91;;;1.05;100.00
35226;BME280;21813;49.686;21.766;2023-04-08T05:33:48;98804.47;;;1.13;100.00
35226;BME280;21813;49.686;21.766;2023-04-08T05:36:14;98805.69;;;1.27;100.00
35226;BME280;21813;49.686;21.766;2023-04-08T05:38:40;98803.59;;;1.39;100.00
35226;BME280;21813;49.686;21.766;2023-04-08T05:41:17;98802.78;;;1.60;100.00
35226;BME280;21813;49.686;21.766;2023-04-08T05:43:43;98796.50;;;1.67;100.00
35226;BME280;21813;49.686;21.766;2023-04-08T05:46:18;98800.59;;;1.72;100.00
35226;BME280;21813;49.686;21.766;2023-04-08T05:48:48;98800.75;;;1.68;100.00
35226;BME280;21813;49.686;21.766;2023-04-08T05:51:18;98802.63;;;1.64;100.00
35226;BME280;21813;49.686;21.766;2023-04-08T05:53:44;98806.88;;;1.65;100.00
35226;BME280;21813;49.686;21.766;2023-04-08T05:56:12;98803.47;;;1.65;100.00
35226;BME280;21813;49.686;21.766;2023-04-08T05:58:48;98806.97;;;1.62;100.00
35226;BME280;21813;49.686;21.766;2023-04-08T06:01:18;98806.16;;;1.62;100.00
35226;BME280;21813;49.686;21.766;2023-04-08T06:03:43;98806.78;;;1.67;100.00
35226;BME280;21813;49.686;21.766;2023-04-08T06:06:10;98799.22;;;1.64;100.00
35226;BME280;21813;49.686;21.766;2023-04-08T06:08:36;98805.91;;;1.68;100.00
35226;BME280;21813;49.686;21.766;2023-04-08T06:11:04;98806.03;;;1.65;100.00
35226;BME280;21813;49.686;21.766;2023-04-08T06:13:47;98814.56;;;1.65;100.00
35226;BME280;21813;49.686;21.766;2023-04-08T06:16:15;98806.88;;;1.65;100.00
35226;BME280;21813;49.686;21.766;2023-04-08T06:18:42;98816.31;;;1.65;100.00
35226;BME280;21813;49.686;21.766;2023-04-08T06:21:18;98807.72;;;1.66;100.00
35226;BME280;21813;49.686;21.766;2023-04-08T06:23:43;98824.69;;;1.70;100.00
35226;BME280;21813;49.686;21.766;2023-04-08T06:26:09;98832.13;;;1.76;100.00
35226;BME280;21813;49.686;21.766;2023-04-08T06:28:45;98824.22;;;1.82;100.00
35226;BME280;21813;49.686;21.766;2023-04-08T06:31:12;98813.75;;;1.87;100.00
35226;BME280;21813;49.686;21.766;2023-04-08T06:33:38;98824.59;;;1.95;100.00
35226;BME280;21813;49.686;21.766;2023-04-08T06:36:05;98811.47;;;2.02;100.00
35226;BME280;21813;49.686;21.766;2023-04-08T06:38:31;98819.34;;;2.19;100.00
35226;BME280;21813;49.686;21.766;2023-04-08T06:41:04;98809.53;;;2.29;100.00
35226;BME280;21813;49.686;21.766;2023-04-08T06:43:31;98822.88;;;2.39;100.00
35226;BME280;21813;49.686;21.766;2023-04-08T06:46:00;98827.13;;;2.40;100.00
35226;BME280;21813;49.686;21.766;2023-04-08T06:48:26;98827.88;;;2.42;100.00
35226;BME280;21813;49.686;21.766;2023-04-08T06:50:56;98833.75;;;2.45;100.00
35226;BME280;21813;49.686;21.766;2023-04-08T06:53:23;98825.84;;;2.50;100.00
35226;BME280;21813;49.686;21.766;2023-04-08T06:55:49;98823.16;;;2.53;100.00
35226;BME280;21813;49.686;21.766;2023-04-08T06:58:15;98836.56;;;2.61;100.00
35226;BME280;21813;49.686;21.766;2023-04-08T07:00:41;98838.94;;;2.65;100.00
35226;BME280;21813;49.686;21.766;2023-04-08T07:03:07;98838.09;;;2.65;100.00
35226;BME280;21813;49.686;21.766;2023-04-08T07:08:08;98841.19;;;2.73;100.00
35226;BME280;21813;49.686;21.766;2023-04-08T07:10:34;98842.78;;;2.77;100.00
35226;BME280;21813;49.686;21.766;2023-04-08T07:13:00;98845.97;;;2.82;100.00
35226;BME280;21813;49.686;21.766;2023-04-08T07:15:26;98845.84;;;2.85;100.00
35226;BME280;21813;49.686;21.766;2023-04-08T07:17:51;98846.69;;;2.86;100.00
35226;BME280;21813;49.686;21.766;2023-04-08T07:20:17;98854.34;;;2.87;100.00
35226;BME280;21813;49.686;21.766;2023-04-08T07:25:34;98851.53;;;2.93;100.00
35226;BME280;21813;49.686;21.766;2023-04-08T07:28:00;98850.75;;;2.91;100.00
35226;BME280;21813;49.686;21.766;2023-04-08T07:30:26;98854.28;;;2.89;100.00
35226;BME280;21813;49.686;21.766;2023-04-08T07:32:52;98862.00;;;2.89;100.00
35226;BME280;21813;49.686;21.766;2023-04-08T07:35:21;98850.88;;;2.88;100.00
35226;BME280;21813;49.686;21.766;2023-04-08T07:37:49;98859.25;;;2.93;100.00
35226;BME280;21813;49.686;21.766;2023-04-08T07:40:24;98862.59;;;2.95;100.00
35226;BME280;21813;49.686;21.766;2023-04-08T07:42:50;98863.16;;;3.02;100.00
35226;BME280;21813;49.686;21.766;2023-04-08T07:45:16;98864.91;;;3.01;100.00
35226;BME280;21813;49.686;21.766;2023-04-08T07:47:43;98864.84;;;3.03;100.00
35226;BME280;21813;49.686;21.766;2023-04-08T07:50:08;98862.22;;;3.04;100.00
35226;BME280;21813;49.686;21.766;2023-04-08T07:52:34;98868.13;;;3.06;100.00
35226;BME280;21813;49.686;21.766;2023-04-08T07:55:00;98875.81;;;3.08;100.00
35226;BME280;21813;49.686;21.766;2023-04-08T07:57:26;98872.97;;;3.14;100.00
35226;BME280;21813;49.686;21.766;2023-04-08T07:59:52;98866.91;;;3.15;100.00
35226;BME280;21813;49.686;21.766;2023-04-08T08:02:18;98876.00;;;3.24;100.00
35226;BME280;21813;49.686;21.766;2023-04-08T08:04:43;98881.91;;;3.26;100.00
35226;BME280;21813;49.686;21.766;2023-04-08T08:07:09;98872.31;;;3.29;100.00
35226;BME280;21813;49.686;21.766;2023-04-08T08:09:35;98873.16;;;3.30;100.00
35226;BME280;21813;49.686;21.766;2023-04-08T08:12:01;98871.41;;;3.30;100.00
35226;BME280;21813;49.686;21.766;2023-04-08T08:14:26;98873.03;;;3.33;100.00
35226;BME280;21813;49.686;21.766;2023-04-08T08:16:53;98874.59;;;3.37;100.00
35226;BME280;21813;49.686;21.766;2023-04-08T08:19:19;98870.06;;;3.42;100.00
35226;BME280;21813;49.686;21.766;2023-04-08T08:21:45;98872.44;;;3.46;100.00
35226;BME280;21813;49.686;21.766;2023-04-08T08:24:11;98874.81;;;3.51;100.00
35226;BME280;21813;49.686;21.766;2023-04-08T08:26:37;98875.19;;;3.62;100.00
35226;BME280;21813;49.686;21.766;2023-04-08T08:29:03;98875.75;;;3.69;100.00
35226;BME280;21813;49.686;21.766;2023-04-08T08:31:29;98878.00;;;3.76;100.00
35226;BME280;21813;49.686;21.766;2023-04-08T08:33:55;98875.78;;;3.87;100.00
35226;BME280;21813;49.686;21.766;2023-04-08T08:36:21;98883.31;;;3.92;100.00
35226;BME280;21813;49.686;21.766;2023-04-08T08:39:06;98872.31;;;3.88;100.00
35226;BME280;21813;49.686;21.766;2023-04-08T08:41:34;98882.31;;;3.94;100.00
35226;BME280;21813;49.686;21.766;2023-04-08T08:44:04;98885.47;;;4.01;100.00
35226;BME280;21813;49.686;21.766;2023-04-08T08:46:30;98874.81;;;4.09;100.00
35226;BME280;21813;49.686;21.766;2023-04-08T08:48:56;98873.13;;;4.08;100.00
35226;BME280;21813;49.686;21.766;2023-04-08T08:51:26;98875.22;;;4.18;100.00
35226;BME280;21813;49.686;21.766;2023-04-08T08:53:52;98873.06;;;4.28;100.00
35226;BME280;21813;49.686;21.766;2023-04-08T08:56:24;98873.53;;;4.36;100.00
35226;BME280;21813;49.686;21.766;2023-04-08T08:59:10;98888.47;;;4.48;100.00
35226;BME280;21813;49.686;21.766;2023-04-08T09:01:37;98891.66;;;4.53;100.00
35226;BME280;21813;49.686;21.766;2023-04-08T09:04:18;98890.09;;;4.49;100.00
35226;BME280;21813;49.686;21.766;2023-04-08T09:10:03;98884.31;;;4.44;100.00
35226;BME280;21813;49.686;21.766;2023-04-08T09:12:57;98885.25;;;4.43;100.00
35226;BME280;21813;49.686;21.766;2023-04-08T09:19:28;98879.94;;;4.46;100.00
35226;BME280;21813;49.686;21.766;2023-04-08T09:22:10;98884.50;;;4.58;100.00
35226;BME280;21813;49.686;21.766;2023-04-08T09:24:36;98896.22;;;4.65;100.00
35226;BME280;21813;49.686;21.766;2023-04-08T09:27:03;98898.75;;;4.67;100.00
35226;BME280;21813;49.686;21.766;2023-04-08T09:29:42;98903.06;;;4.66;100.00
35226;BME280;21813;49.686;21.766;2023-04-08T09:32:08;98904.94;;;4.63;100.00
35226;BME280;21813;49.686;21.766;2023-04-08T09:34:46;98887.72;;;4.63;100.00
35226;BME280;21813;49.686;21.766;2023-04-08T09:37:13;98895.94;;;4.71;100.00
35226;BME280;21813;49.686;21.766;2023-04-08T09:39:41;98895.63;;;4.77;100.00
35226;BME280;21813;49.686;21.766;2023-04-08T09:42:30;98892.00;;;4.81;100.00
35226;BME280;21813;49.686;21.766;2023-04-08T09:44:58;98901.06;;;4.90;100.00
35226;BME280;21813;49.686;21.766;2023-04-08T09:47:27;98892.31;;;4.93;100.00
35226;BME280;21813;49.686;21.766;2023-04-08T09:50:01;98901.44;;;5.00;100.00
35226;BME280;21813;49.686;21.766;2023-04-08T09:52:32;98899.47;;;5.05;100.00
35226;BME280;21813;49.686;21.766;2023-04-08T09:55:07;98897.66;;;5.07;100.00
35226;BME280;21813;49.686;21.766;2023-04-08T09:57:49;98895.06;;;5.07;100.00
35226;BME280;21813;49.686;21.766;2023-04-08T10:03:44;98906.41;;;5.21;100.00
35226;BME280;21813;49.686;21.766;2023-04-08T10:06:14;98895.22;;;5.21;100.00
35226;BME280;21813;49.686;21.766;2023-04-08T10:08:46;98906.69;;;5.15;100.00
35226;BME280;21813;49.686;21.766;2023-04-08T10:11:18;98904.84;;;5.00;100.00
35226;BME280;21813;49.686;21.766;2023-04-08T10:13:44;98909.28;;;4.98;100.00
35226;BME280;21813;49.686;21.766;2023-04-08T10:16:21;98906.69;;;4.98;100.00
35226;BME280;21813;49.686;21.766;2023-04-08T10:18:49;98902.38;;;4.99;100.00
35226;BME280;21813;49.686;21.766;2023-04-08T10:24:02;98899.50;;;5.22;100.00
35226;BME280;21813;49.686;21.766;2023-04-08T10:26:35;98894.47;;;5.36;100.00
35226;BME280;21813;49.686;21.766;2023-04-08T10:31:47;98890.34;;;5.49;100.00
35226;BME280;21813;49.686;21.766;2023-04-08T10:34:19;98892.59;;;5.55;100.00
35226;BME280;21813;49.686;21.766;2023-04-08T10:36:46;98886.75;;;5.52;100.00
35226;BME280;21813;49.686;21.766;2023-04-08T10:39:15;98890.94;;;5.54;100.00
35226;BME280;21813;49.686;21.766;2023-04-08T10:41:51;98885.91;;;5.51;100.00
35226;BME280;21813;49.686;21.766;2023-04-08T10:44:18;98895.88;;;5.59;100.00
35226;BME280;21813;49.686;21.766;2023-04-08T10:46:45;98896.56;;;5.62;100.00
35226;BME280;21813;49.686;21.766;2023-04-08T10:49:12;98891.56;;;5.59;100.00
35226;BME280;21813;49.686;21.766;2023-04-08T10:51:42;98886.53;;;5.56;100.00
35226;BME280;21813;49.686;21.766;2023-04-08T10:54:15;98885.91;;;5.51;100.00
35226;BME280;21813;49.686;21.766;2023-04-08T10:57:08;98902.03;;;5.56;100.00
35226;BME280;21813;49.686;21.766;2023-04-08T10:59:54;98890.00;;;5.55;100.00
35226;BME280;21813;49.686;21.766;2023-04-08T11:02:46;98902.94;;;5.55;100.00
35226;BME280;21813;49.686;21.766;2023-04-08T11:05:31;98905.53;;;5.55;100.00
35226;BME280;21813;49.686;21.766;2023-04-08T11:07:58;98900.06;;;5.61;100.00
35226;BME280;21813;49.686;21.766;2023-04-08T11:10:24;98889.47;;;5.66;100.00
35226;BME280;21813;49.686;21.766;2023-04-08T11:12:53;98890.44;;;5.81;100.00
35226;BME280;21813;49.686;21.766;2023-04-08T11:15:20;98898.78;;;5.86;100.00
35226;BME280;21813;49.686;21.766;2023-04-08T11:17:47;98902.28;;;5.85;100.00
35226;BME280;21813;49.686;21.766;2023-04-08T11:20:13;98896.84;;;5.91;100.00
35226;BME280;21813;49.686;21.766;2023-04-08T11:22:40;98897.81;;;5.88;100.00
35226;BME280;21813;49.686;21.766;2023-04-08T11:25:09;98891.09;;;5.84;100.00
35226;BME280;21813;49.686;21.766;2023-04-08T11:27:37;98903.38;;;5.81;100.00
35226;BME280;21813;49.686;21.766;2023-04-08T11:30:05;98900.59;;;5.84;100.00
35226;BME280;21813;49.686;21.766;2023-04-08T11:32:31;98908.84;;;5.92;100.00
35226;BME280;21813;49.686;21.766;2023-04-08T11:35:01;98894.66;;;5.99;100.00
35226;BME280;21813;49.686;21.766;2023-04-08T11:37:47;98902.72;;;6.10;100.00
35226;BME280;21813;49.686;21.766;2023-04-08T11:40:19;98881.50;;;6.19;100.00
35226;BME280;21813;49.686;21.766;2023-04-08T11:42:46;98880.66;;;6.34;100.00
35226;BME280;21813;49.686;21.766;2023-04-08T11:45:14;98888.69;;;6.45;100.00
35226;BME280;21813;49.686;21.766;2023-04-08T11:47:41;98885.66;;;6.53;100.00
35226;BME280;21813;49.686;21.766;2023-04-08T11:50:07;98876.72;;;6.58;100.00
35226;BME280;21813;49.686;21.766;2023-04-08T11:52:49;98876.41;;;6.64;100.00
35226;BME280;21813;49.686;21.766;2023-04-08T11:55:24;98877.91;;;6.69;100.00
35226;BME280;21813;49.686;21.766;2023-04-08T11:57:50;98884.00;;;6.68;100.00
35226;BME280;21813;49.686;21.766;2023-04-08T12:00:17;98879.31;;;6.74;100.00
35226;BME280;21813;49.686;21.766;2023-04-08T12:02:44;98872.53;;;6.87;100.00
35226;BME280;21813;49.686;21.766;2023-04-08T12:05:11;98874.13;;;6.74;100.00
35226;BME280;21813;49.686;21.766;2023-04-08T12:07:37;98868.28;;;6.71;100.00
35226;BME280;21813;49.686;21.766;2023-04-08T12:10:03;98871.63;;;6.73;100.00
35226;BME280;21813;49.686;21.766;2023-04-08T12:12:30;98868.44;;;6.83;100.00
35226;BME280;21813;49.686;21.766;2023-04-08T12:14:56;98874.09;;;6.90;100.00
35226;BME280;21813;49.686;21.766;2023-04-08T12:17:22;98872.25;;;6.92;100.00
35226;BME280;21813;49.686;21.766;2023-04-08T12:19:47;98867.91;;;6.92;99.81
35226;BME280;21813;49.686;21.766;2023-04-08T12:22:13;98861.72;;;6.95;100.00
35226;BME280;21813;49.686;21.766;2023-04-08T12:24:40;98873.56;;;6.99;99.85
35226;BME280;21813;49.686;21.766;2023-04-08T12:27:06;98862.34;;;6.98;99.17
35226;BME280;21813;49.686;21.766;2023-04-08T12:29:32;98857.09;;;7.00;97.47
35226;BME280;21813;49.686;21.766;2023-04-08T12:31:58;98858.69;;;7.02;99.65
35226;BME280;21813;49.686;21.766;2023-04-08T12:34:24;98859.00;;;7.12;100.00
35226;BME280;21813;49.686;21.766;2023-04-08T12:42:00;98871.00;;;7.13;94.88
35226;BME280;21813;49.686;21.766;2023-04-08T12:44:26;98863.50;;;7.08;95.23
35226;BME280;21813;49.686;21.766;2023-04-08T12:46:51;98862.66;;;7.08;96.14
35226;BME280;21813;49.686;21.766;2023-04-08T12:49:17;98850.53;;;7.08;96.66
35226;BME280;21813;49.686;21.766;2023-04-08T12:52:00;98860.66;;;7.13;96.62
35226;BME280;21813;49.686;21.766;2023-04-08T12:54:30;98840.19;;;7.08;95.60
35226;BME280;21813;49.686;21.766;2023-04-08T12:56:56;98844.56;;;7.22;95.49
35226;BME280;21813;49.686;21.766;2023-04-08T12:59:23;98857.09;;;7.30;96.81
35226;BME280;21813;49.686;21.766;2023-04-08T13:01:48;98864.75;;;7.31;97.11
35226;BME280;21813;49.686;21.766;2023-04-08T13:04:15;98848.56;;;7.28;95.48
35226;BME280;21813;49.686;21.766;2023-04-08T13:07:04;98850.88;;;7.32;96.33
35226;BME280;21813;49.686;21.766;2023-04-08T13:09:50;98852.34;;;7.36;96.21
35226;BME280;21813;49.686;21.766;2023-04-08T13:12:16;98858.88;;;7.43;96.21
35226;BME280;21813;49.686;21.766;2023-04-08T13:14:41;98847.00;;;7.39;93.44
35226;BME280;21813;49.686;21.766;2023-04-08T13:17:08;98863.13;;;7.44;94.40
35226;BME280;21813;49.686;21.766;2023-04-08T13:19:34;98857.38;;;7.39;95.18
35226;BME280;21813;49.686;21.766;2023-04-08T13:22:01;98852.56;;;7.33;95.86
35226;BME280;21813;49.686;21.766;2023-04-08T13:24:47;98854.38;;;7.31;94.57
35226;BME280;21813;49.686;21.766;2023-04-08T13:27:15;98845.13;;;7.27;93.72
35226;BME280;21813;49.686;21.766;2023-04-08T13:36:39;98848.91;;;7.22;92.13
35226;BME280;21813;49.686;21.766;2023-04-08T13:39:15;98845.50;;;7.21;93.43
35226;BME280;21813;49.686;21.766;2023-04-08T13:56:28;98853.13;;;7.08;92.31